Time;durP1;ratioP1;P1;durP2;ratioP2;P2;SDS_P1;SDS_P2;PMS_P1;PMS_P2;Temp;Humidity;BMP_temperature;BMP_pressure;BME280_temperature;BME280_humidity;BME280_pressure;Samples;Min_cycle;Max_cycle;Signal;HPM_P1;HPM_P2
2021/08/03 00:00:03;;;;;;;;;;;;;;;;;;2122933;27;19927;-43
2021/08/03 00:01:04;;;;;;;;;;;;;;;;;;2124256;28;20388;-42
2021/08/03 00:02:05;;;;;;;;;;;;;;;;;;2122757;28;19928;-43
2021/08/03 00:03:06;;;;;;;;;;;;;;;;;;2123500;27;20433;-43
2021/08/03 00:04:07;;;;;;;;;;;;;;;;;;2124381;28;19977;-43
2021/08/03 00:05:08;;;;;;;;;;;;;;;;;;2122337;28;20360;-43
2021/08/03 00:06:09;;;;;;;;;;;;;;;;;;2123730;27;20326;-43
2021/08/03 00:07:09;;;;;;;;;;;;;;;;;;2124205;28;20018;-43
2021/08/03 00:08:10;;;;;;;;;;;;;;;;;;2122144;27;19923;-43
2021/08/03 00:09:11;;;;;;;;;;;;;;;;;;2123862;27;20387;-42
2021/08/03 00:10:17;;;;;;;;;;;;;;;;;;2124282;28;19928;-43
2021/08/03 00:11:18;;;;;;;;;;;;;;;;;;2122075;27;20369;-43
2021/08/03 00:12:19;;;;;;;;;;;;;;;;;;2124064;28;19924;-42
2021/08/03 00:13:19;;;;;;;;;;;;;;;;;;2124310;28;19928;-42
2021/08/03 00:14:20;;;;;;;;;;;;;;;;;;2121972;27;19931;-44
2021/08/03 00:15:21;;;;;;;;;;;;;;;;;;2123315;27;20368;-43
2021/08/03 00:16:22;;;;;;;;;;;;;;;;;;2123626;28;19924;-44
2021/08/03 00:17:23;;;;;;;;;;;;;;;;;;2122906;27;19976;-43
2021/08/03 00:18:24;;;;;;;;;;;;;;;;;;2116174;28;19924;-42
2021/08/03 00:19:24;;;;;;;;;;;;;;;;;;2115707;28;19924;-43
2021/08/03 00:20:25;;;;;;;;;;;;;;;;;;2121407;27;19955;-42
2021/08/03 00:21:26;;;;;;;;;;;;;;;;;;2132813;27;20352;-45
2021/08/03 00:22:27;;;;;;;;;;;;;;;;;;2132781;27;20330;-43
2021/08/03 00:23:27;;;;;;;;;;;;;;;;;;2123951;27;19929;-42
2021/08/03 00:24:28;;;;;;;;;;;;;;;;;;2124317;28;19957;-42
2021/08/03 00:25:29;;;;;;;;;;;;;;;;;;2124120;28;20311;-42
2021/08/03 00:26:30;;;;;;;;;;;;;;;;;;2121860;27;20366;-43
2021/08/03 00:27:31;;;;;;;;;;;;;;;;;;2124025;28;19927;-43
2021/08/03 00:28:32;;;;;;;;;;;;;;;;;;2123823;28;19924;-43
2021/08/03 00:29:32;;;;;;;;;;;;;;;;;;2122126;27;20018;-43
2021/08/03 00:30:33;;;;;;;;;;;;;;;;;;2124061;28;19972;-42
2021/08/03 00:31:34;;;;;;;;;;;;;;;;;;2123653;27;19931;-42
2021/08/03 00:32:35;;;;;;;;;;;;;;;;;;2122173;27;19968;-43
2021/08/03 00:33:36;;;;;;;;;;;;;;;;;;2123977;28;19924;-42
2021/08/03 00:34:37;;;;;;;;;;;;;;;;;;2123388;27;19924;-42
2021/08/03 00:35:37;;;;;;;;;;;;;;;;;;2122563;27;19923;-42
2021/08/03 00:36:38;;;;;;;;;;;;;;;;;;2123973;28;20345;-43
2021/08/03 00:37:39;;;;;;;;;;;;;;;;;;2122892;28;19923;-43
2021/08/03 00:38:40;;;;;;;;;;;;;;;;;;2123002;27;19923;-43
2021/08/03 00:39:40;;;;;;;;;;;;;;;;;;2123946;28;19929;-43
2021/08/03 00:40:41;;;;;;;;;;;;;;;;;;2122163;27;19958;-42
2021/08/03 00:41:42;;;;;;;;;;;;;;;;;;2123609;27;19924;-43
2021/08/03 00:42:43;;;;;;;;;;;;;;;;;;2124017;28;19927;-43
2021/08/03 00:43:44;;;;;;;;;;;;;;;;;;2122401;28;19969;-42
2021/08/03 00:44:45;;;;;;;;;;;;;;;;;;2123494;27;19934;-43
2021/08/03 00:45:45;;;;;;;;;;;;;;;;;;2123877;28;19934;-42
2021/08/03 00:46:46;;;;;;;;;;;;;;;;;;2121890;28;19930;-42
2021/08/03 00:47:47;;;;;;;;;;;;;;;;;;2123560;27;19934;-42
2021/08/03 00:48:48;;;;;;;;;;;;;;;;;;2124073;28;19923;-42
2021/08/03 00:49:49;;;;;;;;;;;;;;;;;;2121979;28;19939;-42
2021/08/03 00:50:50;;;;;;;;;;;;;;;;;;2122640;27;19923;-43
2021/08/03 00:51:51;;;;;;;;;;;;;;;;;;2124069;28;19972;-42
2021/08/03 00:52:51;;;;;;;;;;;;;;;;;;2120338;27;19931;-42
2021/08/03 00:53:52;;;;;;;;;;;;;;;;;;2123688;28;19976;-43
2021/08/03 00:54:53;;;;;;;;;;;;;;;;;;2123868;28;19927;-43
2021/08/03 00:55:54;;;;;;;;;;;;;;;;;;2121828;27;19927;-42
2021/08/03 00:56:55;;;;;;;;;;;;;;;;;;2115310;28;20136;-42
2021/08/03 00:57:55;;;;;;;;;;;;;;;;;;2115461;28;20364;-42
2021/08/03 00:58:56;;;;;;;;;;;;;;;;;;2119705;27;20327;-42
2021/08/03 00:59:57;;;;;;;;;;;;;;;;;;2123924;28;20063;-43
2021/08/03 01:00:58;;;;;;;;;;;;;;;;;;2123827;28;19927;-42
2021/08/03 01:01:59;;;;;;;;;;;;;;;;;;2120594;27;19927;-43
2021/08/03 01:03:00;;;;;;;;;;;;;;;;;;2123802;28;19924;-42
2021/08/03 01:04:02;;;;;;;;;;;;;;;;;;2124015;28;19923;-43
2021/08/03 01:05:03;;;;;;;;;;;;;;;;;;2121745;27;20017;-43
2021/08/03 01:06:04;;;;;;;;;;;;;;;;;;2123834;28;20304;-42
2021/08/03 01:07:05;;;;;;;;;;;;;;;;;;2123390;28;20272;-42
2021/08/03 01:08:05;;;;;;;;;;;;;;;;;;2122010;27;19927;-43
2021/08/03 01:09:06;;;;;;;;;;;;;;;;;;2123917;28;19924;-42
2021/08/03 01:10:07;;;;;;;;;;;;;;;;;;2123439;28;20283;-42
2021/08/03 01:11:08;;;;;;;;;;;;;;;;;;2122940;27;20280;-42
2021/08/03 01:12:09;;;;;;;;;;;;;;;;;;2123791;28;19931;-43
2021/08/03 01:13:09;;;;;;;;;;;;;;;;;;2123349;28;20280;-43
2021/08/03 01:14:10;;;;;;;;;;;;;;;;;;2122186;27;19941;-43
2021/08/03 01:15:12;;;;;;;;;;;;;;;;;;2123754;28;19923;-43
2021/08/03 01:16:12;;;;;;;;;;;;;;;;;;2122710;28;20443;-42
2021/08/03 01:17:13;;;;;;;;;;;;;;;;;;2122619;27;19934;-42
2021/08/03 01:18:14;;;;;;;;;;;;;;;;;;2123896;28;20006;-43
2021/08/03 01:19:15;;;;;;;;;;;;;;;;;;2122000;28;20303;-42
2021/08/03 01:20:16;;;;;;;;;;;;;;;;;;2123383;27;20288;-44
2021/08/03 01:21:17;;;;;;;;;;;;;;;;;;2123846;28;19930;-43
2021/08/03 01:22:17;;;;;;;;;;;;;;;;;;2122067;27;19923;-44
2021/08/03 01:23:18;;;;;;;;;;;;;;;;;;2127275;27;19923;-42
2021/08/03 01:24:19;;;;;;;;;;;;;;;;;;2132434;27;20013;-43
2021/08/03 01:25:20;;;;;;;;;;;;;;;;;;2126492;27;20280;-43
2021/08/03 01:26:21;;;;;;;;;;;;;;;;;;2123373;27;19970;-42
2021/08/03 01:27:21;;;;;;;;;;;;;;;;;;2123313;27;19976;-43
2021/08/03 01:28:22;;;;;;;;;;;;;;;;;;2120930;28;19973;-42
2021/08/03 01:29:23;;;;;;;;;;;;;;;;;;2124454;27;19950;-42
2021/08/03 01:30:24;;;;;;;;;;;;;;;;;;2123674;28;19924;-44
2021/08/03 01:31:25;;;;;;;;;;;;;;;;;;2121573;28;19924;-43
2021/08/03 01:32:27;;;;;;;;;;;;;;;;;;2123377;27;19968;-43
2021/08/03 01:33:28;;;;;;;;;;;;;;;;;;2123637;28;20349;-42
2021/08/03 01:34:29;;;;;;;;;;;;;;;;;;2121368;27;19931;-43
2021/08/03 01:35:30;;;;;;;;;;;;;;;;;;2116127;28;19940;-42
2021/08/03 01:36:31;;;;;;;;;;;;;;;;;;2115272;28;19976;-42
2021/08/03 01:37:31;;;;;;;;;;;;;;;;;;2119576;27;20330;-42
2021/08/03 01:38:32;;;;;;;;;;;;;;;;;;2123630;28;20337;-43
2021/08/03 01:39:33;;;;;;;;;;;;;;;;;;2123521;28;19923;-42
2021/08/03 01:40:34;;;;;;;;;;;;;;;;;;2121452;27;19935;-42
2021/08/03 01:41:35;;;;;;;;;;;;;;;;;;2123609;28;20028;-42
2021/08/03 01:42:36;;;;;;;;;;;;;;;;;;2123608;28;19930;-42
2021/08/03 01:43:36;;;;;;;;;;;;;;;;;;2121281;27;19930;-42
2021/08/03 01:44:37;;;;;;;;;;;;;;;;;;2123540;28;19931;-42
2021/08/03 01:45:38;;;;;;;;;;;;;;;;;;2123581;28;19923;-42
2021/08/03 01:46:39;;;;;;;;;;;;;;;;;;2120250;27;20013;-42
2021/08/03 01:47:40;;;;;;;;;;;;;;;;;;2123479;28;20207;-42
2021/08/03 01:48:41;;;;;;;;;;;;;;;;;;2123218;28;19969;-42
2021/08/03 01:49:42;;;;;;;;;;;;;;;;;;2121741;27;19966;-42
2021/08/03 01:50:42;;;;;;;;;;;;;;;;;;2123490;28;20335;-42
2021/08/03 01:51:43;;;;;;;;;;;;;;;;;;2123208;28;19934;-42
2021/08/03 01:52:44;;;;;;;;;;;;;;;;;;2120084;27;19931;-42
2021/08/03 01:53:45;;;;;;;;;;;;;;;;;;2123478;28;19927;-43
2021/08/03 01:54:46;;;;;;;;;;;;;;;;;;2122660;28;19935;-42
2021/08/03 01:55:46;;;;;;;;;;;;;;;;;;2122305;27;19924;-42
2021/08/03 01:56:47;;;;;;;;;;;;;;;;;;2123614;28;19927;-42
2021/08/03 01:57:48;;;;;;;;;;;;;;;;;;2121751;28;19954;-42
2021/08/03 01:58:49;;;;;;;;;;;;;;;;;;2122068;27;20295;-42
2021/08/03 01:59:52;;;;;;;;;;;;;;;;;;2123413;28;19983;-42
2021/08/03 02:00:53;;;;;;;;;;;;;;;;;;2121754;28;19943;-42
2021/08/03 02:01:53;;;;;;;;;;;;;;;;;;2123021;27;20036;-42
2021/08/03 02:02:55;;;;;;;;;;;;;;;;;;2123317;28;19946;-42
2021/08/03 02:03:55;;;;;;;;;;;;;;;;;;2121553;27;20403;-42
2021/08/03 02:04:56;;;;;;;;;;;;;;;;;;2123124;27;19928;-42
2021/08/03 02:05:57;;;;;;;;;;;;;;;;;;2123384;28;19930;-42
2021/08/03 02:06:58;;;;;;;;;;;;;;;;;;2122581;27;19959;-42
2021/08/03 02:07:59;;;;;;;;;;;;;;;;;;2123182;27;19930;-42
2021/08/03 02:09:00;;;;;;;;;;;;;;;;;;2123562;28;19927;-42
2021/08/03 02:10:00;;;;;;;;;;;;;;;;;;2121117;27;19932;-42
2021/08/03 02:11:01;;;;;;;;;;;;;;;;;;2123132;28;20428;-42
2021/08/03 02:12:02;;;;;;;;;;;;;;;;;;2123558;28;19924;-42
2021/08/03 02:13:03;;;;;;;;;;;;;;;;;;2120508;27;20365;-42
2021/08/03 02:14:03;;;;;;;;;;;;;;;;;;2122426;28;19927;-42
2021/08/03 02:15:04;;;;;;;;;;;;;;;;;;2123432;28;19931;-42
2021/08/03 02:16:05;;;;;;;;;;;;;;;;;;2120704;27;19931;-42
2021/08/03 02:17:06;;;;;;;;;;;;;;;;;;2122976;27;19923;-42
2021/08/03 02:18:07;;;;;;;;;;;;;;;;;;2123323;28;19923;-42
2021/08/03 02:19:08;;;;;;;;;;;;;;;;;;2121178;27;20322;-42
2021/08/03 02:20:08;;;;;;;;;;;;;;;;;;2123286;28;19923;-42
2021/08/03 02:21:09;;;;;;;;;;;;;;;;;;2123378;28;20037;-42
2021/08/03 02:22:10;;;;;;;;;;;;;;;;;;2120983;27;19931;-42
2021/08/03 02:23:11;;;;;;;;;;;;;;;;;;2123391;28;19923;-42
2021/08/03 02:24:12;;;;;;;;;;;;;;;;;;2123409;28;19923;-42
2021/08/03 02:25:13;;;;;;;;;;;;;;;;;;2120027;27;19923;-42
2021/08/03 02:26:13;;;;;;;;;;;;;;;;;;2123412;28;19927;-42
2021/08/03 02:27:14;;;;;;;;;;;;;;;;;;2122885;28;19923;-42
2021/08/03 02:28:15;;;;;;;;;;;;;;;;;;2121361;27;19923;-42
2021/08/03 02:29:16;;;;;;;;;;;;;;;;;;2123231;28;19924;-42
2021/08/03 02:30:17;;;;;;;;;;;;;;;;;;2123104;28;20302;-42
2021/08/03 02:31:18;;;;;;;;;;;;;;;;;;2121382;27;20330;-42
2021/08/03 02:32:18;;;;;;;;;;;;;;;;;;2123272;27;20002;-42
2021/08/03 02:33:19;;;;;;;;;;;;;;;;;;2122383;28;19931;-42
2021/08/03 02:34:20;;;;;;;;;;;;;;;;;;2121929;27;19923;-42
2021/08/03 02:35:21;;;;;;;;;;;;;;;;;;2123353;28;20010;-42
2021/08/03 02:36:22;;;;;;;;;;;;;;;;;;2121713;28;19991;-42
2021/08/03 02:37:23;;;;;;;;;;;;;;;;;;2123663;27;20368;-42
2021/08/03 02:38:23;;;;;;;;;;;;;;;;;;2122762;27;19931;-42
2021/08/03 02:39:24;;;;;;;;;;;;;;;;;;2121007;28;19961;-42
2021/08/03 02:40:25;;;;;;;;;;;;;;;;;;2122647;27;19930;-42
2021/08/03 02:41:26;;;;;;;;;;;;;;;;;;2123235;28;20204;-42
2021/08/03 02:42:26;;;;;;;;;;;;;;;;;;2121163;28;19952;-42
2021/08/03 02:43:27;;;;;;;;;;;;;;;;;;2121973;27;20357;-42
2021/08/03 02:44:28;;;;;;;;;;;;;;;;;;2123178;28;19928;-42
2021/08/03 02:45:29;;;;;;;;;;;;;;;;;;2121482;28;19931;-42
2021/08/03 02:46:30;;;;;;;;;;;;;;;;;;2123012;27;19923;-42
2021/08/03 02:47:37;;;;;;;;;;;;;;;;;;2123157;28;20363;-42
2021/08/03 02:48:38;;;;;;;;;;;;;;;;;;2121199;28;19976;-42
2021/08/03 02:49:47;;;;;;;;;;;;;;;;;;2121946;28;20029;-42
2021/08/03 02:50:48;;;;;;;;;;;;;;;;;;2123181;28;19927;-42
2021/08/03 02:51:48;;;;;;;;;;;;;;;;;;2120855;27;19932;-42
2021/08/03 02:52:49;;;;;;;;;;;;;;;;;;2121842;27;20009;-42
2021/08/03 02:53:50;;;;;;;;;;;;;;;;;;2123021;28;20303;-42
2021/08/03 02:54:51;;;;;;;;;;;;;;;;;;2120879;27;20368;-42
2021/08/03 02:55:52;;;;;;;;;;;;;;;;;;2123238;28;20424;-42
2021/08/03 02:56:53;;;;;;;;;;;;;;;;;;2122940;28;19931;-42
2021/08/03 02:57:54;;;;;;;;;;;;;;;;;;2121251;27;20012;-42
2021/08/03 02:58:55;;;;;;;;;;;;;;;;;;2123122;28;20371;-42
2021/08/03 02:59:56;;;;;;;;;;;;;;;;;;2122796;28;19923;-42
2021/08/03 03:00:57;;;;;;;;;;;;;;;;;;2121179;27;20392;-42
2021/08/03 03:01:58;;;;;;;;;;;;;;;;;;2123277;28;19923;-42
2021/08/03 03:02:59;;;;;;;;;;;;;;;;;;2122295;28;20306;-42
2021/08/03 03:04:00;;;;;;;;;;;;;;;;;;2121764;27;20419;-42
2021/08/03 03:05:01;;;;;;;;;;;;;;;;;;2123153;28;19923;-42
2021/08/03 03:06:01;;;;;;;;;;;;;;;;;;2121444;28;20295;-42
2021/08/03 03:07:02;;;;;;;;;;;;;;;;;;2122415;27;20353;-42
2021/08/03 03:08:03;;;;;;;;;;;;;;;;;;2122994;28;19927;-42
2021/08/03 03:09:04;;;;;;;;;;;;;;;;;;2121246;28;19934;-42
2021/08/03 03:10:05;;;;;;;;;;;;;;;;;;2122779;27;20391;-42
2021/08/03 03:11:07;;;;;;;;;;;;;;;;;;2123095;28;19950;-42
2021/08/03 03:12:07;;;;;;;;;;;;;;;;;;2120905;27;20273;-42
2021/08/03 03:13:08;;;;;;;;;;;;;;;;;;2122915;27;19924;-42
2021/08/03 03:14:09;;;;;;;;;;;;;;;;;;2123000;28;20321;-42
2021/08/03 03:15:10;;;;;;;;;;;;;;;;;;2121164;28;19924;-42
2021/08/03 03:16:11;;;;;;;;;;;;;;;;;;2122863;27;19927;-42
2021/08/03 03:17:12;;;;;;;;;;;;;;;;;;2123109;28;19923;-42
2021/08/03 03:18:12;;;;;;;;;;;;;;;;;;2121126;27;20160;-42
2021/08/03 03:19:13;;;;;;;;;;;;;;;;;;2122850;28;20398;-42
2021/08/03 03:20:14;;;;;;;;;;;;;;;;;;2123084;28;20018;-42
2021/08/03 03:21:15;;;;;;;;;;;;;;;;;;2120950;27;19923;-42
2021/08/03 03:22:15;;;;;;;;;;;;;;;;;;2122677;28;19924;-42
2021/08/03 03:23:16;;;;;;;;;;;;;;;;;;2122979;28;20002;-42
2021/08/03 03:24:17;;;;;;;;;;;;;;;;;;2120802;27;19924;-42
2021/08/03 03:25:18;;;;;;;;;;;;;;;;;;2122909;28;19930;-42
2021/08/03 03:26:19;;;;;;;;;;;;;;;;;;2123072;28;19923;-43
2021/08/03 03:27:20;;;;;;;;;;;;;;;;;;2120737;27;19976;-43
2021/08/03 03:28:20;;;;;;;;;;;;;;;;;;2114400;28;19923;-43
2021/08/03 03:29:21;;;;;;;;;;;;;;;;;;2114477;28;20396;-46
2021/08/03 03:30:22;;;;;;;;;;;;;;;;;;2119930;27;19923;-46
2021/08/03 03:31:23;;;;;;;;;;;;;;;;;;2123006;28;19930;-45
2021/08/03 03:32:24;;;;;;;;;;;;;;;;;;2122912;28;19927;-44
2021/08/03 03:33:25;;;;;;;;;;;;;;;;;;2120696;27;19924;-45
2021/08/03 03:34:25;;;;;;;;;;;;;;;;;;2122867;28;20101;-45
2021/08/03 03:35:26;;;;;;;;;;;;;;;;;;2122709;28;19924;-45
2021/08/03 03:36:27;;;;;;;;;;;;;;;;;;2121037;27;20349;-45
2021/08/03 03:37:28;;;;;;;;;;;;;;;;;;2122982;28;20014;-44
2021/08/03 03:38:29;;;;;;;;;;;;;;;;;;2122545;28;19949;-45
2021/08/03 03:39:30;;;;;;;;;;;;;;;;;;2121126;27;20356;-45
2021/08/03 03:40:31;;;;;;;;;;;;;;;;;;2122983;28;20325;-44
2021/08/03 03:41:31;;;;;;;;;;;;;;;;;;2122423;28;19931;-45
2021/08/03 03:42:32;;;;;;;;;;;;;;;;;;2121182;27;19972;-45
2021/08/03 03:43:33;;;;;;;;;;;;;;;;;;2122929;28;19924;-45
2021/08/03 03:44:34;;;;;;;;;;;;;;;;;;2121858;28;19955;-44
2021/08/03 03:45:34;;;;;;;;;;;;;;;;;;2121890;27;20037;-45
2021/08/03 03:46:35;;;;;;;;;;;;;;;;;;2123025;28;19923;-46
2021/08/03 03:47:36;;;;;;;;;;;;;;;;;;2120986;28;19946;-46
2021/08/03 03:48:37;;;;;;;;;;;;;;;;;;2122445;27;19927;-45
2021/08/03 03:49:38;;;;;;;;;;;;;;;;;;2122977;28;19924;-45
2021/08/03 03:50:39;;;;;;;;;;;;;;;;;;2122413;27;19931;-46
2021/08/03 03:51:39;;;;;;;;;;;;;;;;;;2123875;27;19923;-46
2021/08/03 03:52:43;;;;;;;;;;;;;;;;;;2122699;27;19923;-45
2021/08/03 03:53:44;;;;;;;;;;;;;;;;;;2122267;28;20406;-46
2021/08/03 03:54:45;;;;;;;;;;;;;;;;;;2123941;27;19928;-45
2021/08/03 03:55:46;;;;;;;;;;;;;;;;;;2124274;28;19927;-45
2021/08/03 03:56:47;;;;;;;;;;;;;;;;;;2122239;28;19931;-46
2021/08/03 03:57:47;;;;;;;;;;;;;;;;;;2124158;27;19972;-46
2021/08/03 03:58:48;;;;;;;;;;;;;;;;;;2124154;28;19930;-45
2021/08/03 03:59:49;;;;;;;;;;;;;;;;;;2123220;27;19927;-47
2021/08/03 04:00:50;;;;;;;;;;;;;;;;;;2124145;28;19927;-46
2021/08/03 04:01:51;;;;;;;;;;;;;;;;;;2124182;28;19966;-45
2021/08/03 04:02:52;;;;;;;;;;;;;;;;;;2121936;27;19947;-45
2021/08/03 04:03:53;;;;;;;;;;;;;;;;;;2116201;28;19924;-46
2021/08/03 04:04:54;;;;;;;;;;;;;;;;;;2115887;28;19928;-45
2021/08/03 04:05:54;;;;;;;;;;;;;;;;;;2119478;27;19927;-50
2021/08/03 04:06:55;;;;;;;;;;;;;;;;;;2115907;28;20014;-46
2021/08/03 04:07:56;;;;;;;;;;;;;;;;;;2115563;28;19923;-47
2021/08/03 04:08:57;;;;;;;;;;;;;;;;;;2121272;27;19931;-47
2021/08/03 04:09:58;;;;;;;;;;;;;;;;;;2124296;28;20273;-47
2021/08/03 04:10:59;;;;;;;;;;;;;;;;;;2124310;28;19923;-48
2021/08/03 04:11:59;;;;;;;;;;;;;;;;;;2122009;27;20373;-46
2021/08/03 04:13:00;;;;;;;;;;;;;;;;;;2124081;28;20384;-47
2021/08/03 04:14:01;;;;;;;;;;;;;;;;;;2123981;28;19924;-49
2021/08/03 04:15:02;;;;;;;;;;;;;;;;;;2122223;27;20337;-46
2021/08/03 04:16:02;;;;;;;;;;;;;;;;;;2124155;28;19923;-49
2021/08/03 04:17:03;;;;;;;;;;;;;;;;;;2123832;28;19924;-45
2021/08/03 04:18:04;;;;;;;;;;;;;;;;;;2122250;27;19988;-45
2021/08/03 04:19:05;;;;;;;;;;;;;;;;;;2124184;28;20345;-45
2021/08/03 04:20:06;;;;;;;;;;;;;;;;;;2123537;28;19931;-45
2021/08/03 04:21:07;;;;;;;;;;;;;;;;;;2122571;27;19930;-48
2021/08/03 04:22:07;;;;;;;;;;;;;;;;;;2124042;28;20369;-45
2021/08/03 04:23:08;;;;;;;;;;;;;;;;;;2122935;28;19930;-47
2021/08/03 04:24:09;;;;;;;;;;;;;;;;;;2123098;27;20329;-48
2021/08/03 04:25:10;;;;;;;;;;;;;;;;;;2124066;28;20368;-45
2021/08/03 04:26:11;;;;;;;;;;;;;;;;;;2122294;27;19932;-48
2021/08/03 04:27:12;;;;;;;;;;;;;;;;;;2123738;27;20039;-47
2021/08/03 04:28:13;;;;;;;;;;;;;;;;;;2124141;28;19931;-45
2021/08/03 04:29:14;;;;;;;;;;;;;;;;;;2122326;27;19935;-46
2021/08/03 04:30:14;;;;;;;;;;;;;;;;;;2123702;27;20296;-47
2021/08/03 04:31:15;;;;;;;;;;;;;;;;;;2124212;28;19923;-47
2021/08/03 04:32:16;;;;;;;;;;;;;;;;;;2121972;27;19923;-49
2021/08/03 04:33:17;;;;;;;;;;;;;;;;;;2122530;27;19923;-45
2021/08/03 04:34:18;;;;;;;;;;;;;;;;;;2123925;28;19930;-48
2021/08/03 04:35:18;;;;;;;;;;;;;;;;;;2122061;27;19924;-45
2021/08/03 04:36:19;;;;;;;;;;;;;;;;;;2122809;28;19923;-48
2021/08/03 04:37:20;;;;;;;;;;;;;;;;;;2124019;28;19924;-45
2021/08/03 04:38:21;;;;;;;;;;;;;;;;;;2121952;28;20748;-45
2021/08/03 04:39:22;;;;;;;;;;;;;;;;;;2123774;27;20431;-46
2021/08/03 04:40:22;;;;;;;;;;;;;;;;;;2123951;28;19925;-44
2021/08/03 04:41:23;;;;;;;;;;;;;;;;;;2121688;27;20003;-46
2021/08/03 04:42:24;;;;;;;;;;;;;;;;;;2123799;28;19984;-45
2021/08/03 04:43:25;;;;;;;;;;;;;;;;;;2124006;27;19924;-45
2021/08/03 04:44:26;;;;;;;;;;;;;;;;;;2121797;27;19938;-45
2021/08/03 04:45:27;;;;;;;;;;;;;;;;;;2115845;28;20372;-45
2021/08/03 04:46:27;;;;;;;;;;;;;;;;;;2115617;28;19923;-45
2021/08/03 04:47:28;;;;;;;;;;;;;;;;;;2120361;27;19931;-47
2021/08/03 04:48:29;;;;;;;;;;;;;;;;;;2123982;28;19930;-45
2021/08/03 04:49:31;;;;;;;;;;;;;;;;;;2123937;28;19930;-46
2021/08/03 04:50:32;;;;;;;;;;;;;;;;;;2122802;27;20018;-45
2021/08/03 04:51:33;;;;;;;;;;;;;;;;;;2124188;28;19959;-44
2021/08/03 04:52:33;;;;;;;;;;;;;;;;;;2122125;27;20317;-48
2021/08/03 04:53:34;;;;;;;;;;;;;;;;;;2121952;27;19927;-45
2021/08/03 04:54:35;;;;;;;;;;;;;;;;;;2124036;28;20007;-47
2021/08/03 04:55:36;;;;;;;;;;;;;;;;;;2123598;28;20011;-45
2021/08/03 04:56:37;;;;;;;;;;;;;;;;;;2122082;27;20368;-46
2021/08/03 04:57:38;;;;;;;;;;;;;;;;;;2123765;28;19923;-45
2021/08/03 04:58:57;;;;;;;;;;;;;;;;;;2122025;28;20280;-45
2021/08/03 04:59:57;;;;;;;;;;;;;;;;;;2123408;27;19923;-47
2021/08/03 05:00:58;;;;;;;;;;;;;;;;;;2123958;28;19924;-46
2021/08/03 05:02:01;;;;;;;;;;;;;;;;;;2121193;27;19973;-47
2021/08/03 05:03:02;;;;;;;;;;;;;;;;;;2122549;27;19976;-47
2021/08/03 05:04:03;;;;;;;;;;;;;;;;;;2123970;28;20028;-45
2021/08/03 05:05:04;;;;;;;;;;;;;;;;;;2121821;27;20433;-46
2021/08/03 05:06:05;;;;;;;;;;;;;;;;;;2123690;27;19928;-45
2021/08/03 05:07:06;;;;;;;;;;;;;;;;;;2123788;28;19962;-48
2021/08/03 05:08:06;;;;;;;;;;;;;;;;;;2121784;27;19931;-46
2021/08/03 05:09:07;;;;;;;;;;;;;;;;;;2116056;28;20376;-47
2021/08/03 05:10:09;;;;;;;;;;;;;;;;;;2115310;28;19927;-45
2021/08/03 05:11:10;;;;;;;;;;;;;;;;;;2120063;27;20022;-44
2021/08/03 05:12:11;;;;;;;;;;;;;;;;;;2131389;27;20402;-46
2021/08/03 05:13:12;;;;;;;;;;;;;;;;;;2132344;27;19931;-45
2021/08/03 05:14:12;;;;;;;;;;;;;;;;;;2122441;27;19925;-46
2021/08/03 05:15:13;;;;;;;;;;;;;;;;;;2123846;28;19923;-45
2021/08/03 05:16:14;;;;;;;;;;;;;;;;;;2123903;28;20021;-46
2021/08/03 05:17:15;;;;;;;;;;;;;;;;;;2121447;27;20016;-45
2021/08/03 05:18:16;;;;;;;;;;;;;;;;;;2123598;28;19923;-45
2021/08/03 05:19:17;;;;;;;;;;;;;;;;;;2123345;28;19971;-45
2021/08/03 05:20:17;;;;;;;;;;;;;;;;;;2121648;27;20418;-45
2021/08/03 05:21:18;;;;;;;;;;;;;;;;;;2123852;28;19923;-46
2021/08/03 05:22:19;;;;;;;;;;;;;;;;;;2123293;28;19988;-46
2021/08/03 05:23:20;;;;;;;;;;;;;;;;;;2121776;27;19924;-46
2021/08/03 05:24:25;;;;;;;;;;;;;;;;;;2123698;28;19928;-45
2021/08/03 05:25:27;;;;;;;;;;;;;;;;;;2122652;28;19923;-46
2021/08/03 05:26:27;;;;;;;;;;;;;;;;;;2122744;27;20320;-48
2021/08/03 05:27:28;;;;;;;;;;;;;;;;;;2123785;28;19930;-45
2021/08/03 05:28:29;;;;;;;;;;;;;;;;;;2121861;28;19976;-46
2021/08/03 05:29:31;;;;;;;;;;;;;;;;;;2123269;27;19927;-45
2021/08/03 05:30:31;;;;;;;;;;;;;;;;;;2123789;28;19923;-45
2021/08/03 05:31:32;;;;;;;;;;;;;;;;;;2121739;28;19923;-46
2021/08/03 05:32:33;;;;;;;;;;;;;;;;;;2123212;27;20376;-47
2021/08/03 05:33:34;;;;;;;;;;;;;;;;;;2123606;28;20026;-45
2021/08/03 05:34:35;;;;;;;;;;;;;;;;;;2121625;27;19923;-47
2021/08/03 05:35:36;;;;;;;;;;;;;;;;;;2123348;27;19927;-46
2021/08/03 05:36:38;;;;;;;;;;;;;;;;;;2123764;28;20017;-46
2021/08/03 05:37:39;;;;;;;;;;;;;;;;;;2121533;27;20432;-49
2021/08/03 05:38:39;;;;;;;;;;;;;;;;;;2123345;28;19923;-46
2021/08/03 05:39:40;;;;;;;;;;;;;;;;;;2123770;28;19923;-46
2021/08/03 05:40:41;;;;;;;;;;;;;;;;;;2120366;27;20322;-47
2021/08/03 05:41:42;;;;;;;;;;;;;;;;;;2123487;28;20342;-47
2021/08/03 05:42:43;;;;;;;;;;;;;;;;;;2123531;28;19924;-49
2021/08/03 05:43:44;;;;;;;;;;;;;;;;;;2121466;27;20304;-48
2021/08/03 05:44:45;;;;;;;;;;;;;;;;;;2123354;27;19924;-46
2021/08/03 05:45:45;;;;;;;;;;;;;;;;;;2123723;27;20345;-46
2021/08/03 05:46:46;;;;;;;;;;;;;;;;;;2121284;27;19924;-45
2021/08/03 05:47:47;;;;;;;;;;;;;;;;;;2123610;28;19923;-45
2021/08/03 05:48:48;;;;;;;;;;;;;;;;;;2123635;28;20333;-44
2021/08/03 05:49:49;;;;;;;;;;;;;;;;;;2121315;27;19924;-44
2021/08/03 05:50:50;;;;;;;;;;;;;;;;;;2123643;28;19934;-44
2021/08/03 05:51:50;;;;;;;;;;;;;;;;;;2123716;28;20280;-45
2021/08/03 05:52:51;;;;;;;;;;;;;;;;;;2120149;27;20296;-44
2021/08/03 05:53:52;;;;;;;;;;;;;;;;;;2123429;28;19930;-45
2021/08/03 05:54:53;;;;;;;;;;;;;;;;;;2123050;28;19923;-45
2021/08/03 05:55:53;;;;;;;;;;;;;;;;;;2122709;27;19932;-46
2021/08/03 05:56:54;;;;;;;;;;;;;;;;;;2123613;28;20380;-44
2021/08/03 05:57:55;;;;;;;;;;;;;;;;;;2123176;28;19943;-45
2021/08/03 05:58:56;;;;;;;;;;;;;;;;;;2121606;27;19930;-44
2021/08/03 05:59:57;;;;;;;;;;;;;;;;;;2123354;28;20388;-45
2021/08/03 06:00:58;;;;;;;;;;;;;;;;;;2122975;28;19924;-44
2021/08/03 06:01:58;;;;;;;;;;;;;;;;;;2122066;27;19923;-44
2021/08/03 06:03:00;;;;;;;;;;;;;;;;;;2123315;28;19923;-44
2021/08/03 06:04:01;;;;;;;;;;;;;;;;;;2122254;28;19927;-43
2021/08/03 06:05:02;;;;;;;;;;;;;;;;;;2122600;27;20300;-45
2021/08/03 06:06:02;;;;;;;;;;;;;;;;;;2123545;28;19924;-44
2021/08/03 06:07:03;;;;;;;;;;;;;;;;;;2121528;28;19948;-43
2021/08/03 06:08:04;;;;;;;;;;;;;;;;;;2123082;27;19931;-43
2021/08/03 06:09:05;;;;;;;;;;;;;;;;;;2123353;28;20082;-43
2021/08/03 06:10:05;;;;;;;;;;;;;;;;;;2121571;28;20010;-43
2021/08/03 06:11:06;;;;;;;;;;;;;;;;;;2123050;27;19968;-43
2021/08/03 06:12:07;;;;;;;;;;;;;;;;;;2123310;28;19946;-44
2021/08/03 06:13:08;;;;;;;;;;;;;;;;;;2120990;27;19923;-43
2021/08/03 06:14:09;;;;;;;;;;;;;;;;;;2121125;27;19923;-44
2021/08/03 06:15:10;;;;;;;;;;;;;;;;;;2123361;28;20364;-43
2021/08/03 06:16:10;;;;;;;;;;;;;;;;;;2121486;27;19924;-44
2021/08/03 06:17:11;;;;;;;;;;;;;;;;;;2123141;27;19931;-43
2021/08/03 06:18:12;;;;;;;;;;;;;;;;;;2123427;28;20299;-43
2021/08/03 06:19:13;;;;;;;;;;;;;;;;;;2121250;28;19946;-43
2021/08/03 06:20:14;;;;;;;;;;;;;;;;;;2123217;27;20084;-43
2021/08/03 06:21:15;;;;;;;;;;;;;;;;;;2123223;28;20396;-44
2021/08/03 06:22:16;;;;;;;;;;;;;;;;;;2121187;27;19972;-43
2021/08/03 06:23:17;;;;;;;;;;;;;;;;;;2115625;28;19928;-44
2021/08/03 06:24:17;;;;;;;;;;;;;;;;;;2114976;28;19930;-43
2021/08/03 06:25:18;;;;;;;;;;;;;;;;;;2119255;27;19931;-43
2021/08/03 06:26:19;;;;;;;;;;;;;;;;;;2115021;28;19927;-43
2021/08/03 06:27:20;;;;;;;;;;;;;;;;;;2114722;28;19923;-43
2021/08/03 06:28:21;;;;;;;;;;;;;;;;;;2120150;27;20356;-43
2021/08/03 06:29:22;;;;;;;;;;;;;;;;;;2123528;28;20364;-43
2021/08/03 06:30:22;;;;;;;;;;;;;;;;;;2123283;28;19927;-43
2021/08/03 06:31:23;;;;;;;;;;;;;;;;;;2121205;27;19923;-42
2021/08/03 06:32:25;;;;;;;;;;;;;;;;;;2123291;28;19928;-42
2021/08/03 06:33:26;;;;;;;;;;;;;;;;;;2122946;28;20310;-42
2021/08/03 06:34:27;;;;;;;;;;;;;;;;;;2121444;27;19967;-44
2021/08/03 06:35:28;;;;;;;;;;;;;;;;;;2123237;28;19930;-43
2021/08/03 06:36:29;;;;;;;;;;;;;;;;;;2122787;28;19930;-43
2021/08/03 06:37:29;;;;;;;;;;;;;;;;;;2121297;27;19927;-43
2021/08/03 06:38:30;;;;;;;;;;;;;;;;;;2123191;28;20403;-42
2021/08/03 06:39:31;;;;;;;;;;;;;;;;;;2122989;28;19923;-43
2021/08/03 06:40:32;;;;;;;;;;;;;;;;;;2121499;27;19938;-43
2021/08/03 06:41:33;;;;;;;;;;;;;;;;;;2123243;28;20014;-43
2021/08/03 06:42:33;;;;;;;;;;;;;;;;;;2122184;28;19924;-42
2021/08/03 06:43:34;;;;;;;;;;;;;;;;;;2121296;27;19927;-42
2021/08/03 06:44:37;;;;;;;;;;;;;;;;;;2123267;28;20037;-43
2021/08/03 06:45:38;;;;;;;;;;;;;;;;;;2121410;28;19932;-43
2021/08/03 06:46:39;;;;;;;;;;;;;;;;;;2122754;27;19924;-43
2021/08/03 06:47:40;;;;;;;;;;;;;;;;;;2123185;28;19923;-43
2021/08/03 06:48:41;;;;;;;;;;;;;;;;;;2121423;28;19923;-44
2021/08/03 06:49:41;;;;;;;;;;;;;;;;;;2123010;28;20025;-43
2021/08/03 06:50:42;;;;;;;;;;;;;;;;;;2123364;28;20356;-43
2021/08/03 06:51:43;;;;;;;;;;;;;;;;;;2120933;27;19923;-43
2021/08/03 06:52:44;;;;;;;;;;;;;;;;;;2121527;27;19923;-44
2021/08/03 06:53:46;;;;;;;;;;;;;;;;;;2123363;28;20365;-42
2021/08/03 06:54:46;;;;;;;;;;;;;;;;;;2121336;27;19927;-43
2021/08/03 06:55:47;;;;;;;;;;;;;;;;;;2122971;27;19932;-44